createdAt,value
2022-08-21T00:00:24.879Z,21.48
2022-08-21T00:02:56.050Z,21.52
2022-08-21T00:05:24.646Z,21.54
2022-08-21T00:07:52.008Z,21.57
2022-08-21T00:10:19.719Z,21.51
2022-08-21T00:12:46.617Z,21.48
2022-08-21T00:15:17.187Z,21.59
2022-08-21T00:17:44.040Z,21.45
2022-08-21T00:20:12.730Z,21.28
2022-08-21T00:22:39.790Z,21.42
2022-08-21T00:25:07.866Z,21.35
2022-08-21T00:27:34.678Z,21.26
2022-08-21T00:30:01.831Z,21.37
2022-08-21T00:32:29.282Z,21.44
2022-08-21T00:34:56.529Z,21.32
2022-08-21T00:37:23.514Z,21.24
2022-08-21T00:39:50.138Z,21.23
2022-08-21T00:42:18.466Z,20.96
2022-08-21T00:44:47.293Z,20.91
2022-08-21T00:47:14.242Z,21.02
2022-08-21T00:49:41.324Z,20.98
2022-08-21T00:52:12.001Z,21.04
2022-08-21T00:54:40.577Z,21.06
2022-08-21T00:57:26.874Z,21.01
2022-08-21T00:59:59.230Z,20.82
2022-08-21T01:02:26.604Z,20.89
2022-08-21T01:04:53.647Z,20.89
2022-08-21T01:07:20.990Z,20.60
2022-08-21T01:09:49.696Z,20.66
2022-08-21T01:12:16.661Z,20.65
2022-08-21T01:14:44.901Z,20.84
2022-08-21T01:17:13.832Z,20.67
2022-08-21T01:19:40.931Z,20.84
2022-08-21T01:22:07.689Z,20.83
2022-08-21T01:24:34.238Z,20.78
2022-08-21T01:27:01.810Z,20.69
2022-08-21T01:29:48.529Z,20.85
2022-08-21T01:32:18.817Z,20.75
2022-08-21T01:34:47.960Z,20.53
2022-08-21T01:37:15.287Z,20.71
2022-08-21T01:39:45.541Z,20.72
2022-08-21T01:42:14.908Z,20.64
2022-08-21T01:44:42.448Z,20.55
2022-08-21T01:47:12.328Z,20.60
2022-08-21T01:49:39.778Z,20.45
2022-08-21T01:52:06.805Z,20.50
2022-08-21T01:54:36.936Z,20.47
2022-08-21T01:57:04.587Z,20.27
2022-08-21T01:59:31.760Z,20.35
2022-08-21T02:01:58.415Z,20.36
2022-08-21T02:04:25.668Z,20.47
2022-08-21T02:06:52.444Z,20.59
2022-08-21T02:09:19.743Z,20.54
2022-08-21T02:11:47.054Z,20.43
2022-08-21T02:14:15.666Z,20.44
2022-08-21T02:17:05.292Z,20.50
2022-08-21T02:19:40.011Z,20.24
2022-08-21T02:22:10.282Z,20.10
2022-08-21T02:24:53.806Z,20.06
2022-08-21T02:27:24.662Z,20.24
2022-08-21T02:29:54.880Z,20.39
2022-08-21T02:32:22.357Z,20.42
2022-08-21T02:34:49.790Z,20.43
2022-08-21T02:37:16.387Z,20.37
2022-08-21T02:39:42.995Z,20.32
2022-08-21T02:42:09.599Z,20.32
2022-08-21T02:44:36.175Z,20.35
2022-08-21T02:47:03.115Z,20.30
2022-08-21T02:49:29.654Z,20.18
2022-08-21T02:51:56.705Z,20.27
2022-08-21T02:54:23.260Z,20.25
2022-08-21T02:56:50.530Z,20.17
2022-08-21T02:59:17.117Z,20.07
2022-08-21T03:01:45.134Z,20.05
2022-08-21T03:04:11.760Z,20.12
2022-08-21T03:06:38.559Z,20.16
2022-08-21T03:09:05.179Z,20.10
2022-08-21T03:11:31.714Z,20.18
2022-08-21T03:13:58.413Z,20.09
2022-08-21T03:16:24.985Z,20.16
2022-08-21T03:18:51.543Z,20.13
2022-08-21T03:21:19.812Z,19.91
2022-08-21T03:23:46.708Z,19.91
2022-08-21T03:26:13.875Z,19.80
2022-08-21T03:28:40.580Z,19.69
2022-08-21T03:31:07.150Z,19.71
2022-08-21T03:33:33.941Z,19.62
2022-08-21T03:36:07.739Z,19.74
2022-08-21T03:38:35.864Z,19.76
2022-08-21T03:41:04.542Z,19.76
2022-08-21T03:43:32.519Z,19.75
2022-08-21T03:46:02.294Z,19.80
2022-08-21T03:48:29.483Z,19.76
2022-08-21T03:50:56.480Z,19.76
2022-08-21T03:53:23.190Z,19.80
2022-08-21T03:55:51.789Z,19.86
2022-08-21T03:58:21.314Z,19.87
2022-08-21T04:00:53.442Z,19.83
2022-08-21T04:03:20.821Z,19.75
2022-08-21T04:05:47.942Z,19.76
2022-08-21T04:08:18.767Z,19.70
2022-08-21T04:10:47.393Z,19.64
2022-08-21T04:13:15.968Z,19.70
2022-08-21T04:15:43.568Z,19.83
2022-08-21T04:18:10.771Z,19.84
2022-08-21T04:20:38.455Z,19.94
2022-08-21T04:23:05.150Z,19.87
2022-08-21T04:25:32.713Z,19.88
2022-08-21T04:27:59.383Z,19.81
2022-08-21T04:30:28.461Z,19.87
2022-08-21T04:32:57.558Z,19.92
2022-08-21T04:35:26.367Z,19.96
2022-08-21T04:37:53.162Z,19.97
2022-08-21T04:40:21.423Z,20.03
2022-08-21T04:42:50.723Z,20.11
2022-08-21T04:45:24.256Z,20.22
2022-08-21T04:47:53.501Z,20.32
2022-08-21T04:50:25.778Z,20.24
2022-08-21T04:53:06.313Z,20.36
2022-08-21T04:55:33.352Z,20.09
2022-08-21T04:58:01.043Z,20.38
2022-08-21T05:00:27.774Z,20.61
2022-08-21T05:02:57.843Z,20.65
2022-08-21T05:05:25.465Z,20.98
2022-08-21T05:07:54.105Z,21.12
2022-08-21T05:10:21.511Z,21.29
2022-08-21T05:12:48.292Z,21.54
2022-08-21T05:15:17.584Z,22.00
2022-08-21T05:17:44.252Z,22.58
2022-08-21T05:20:20.734Z,23.31
2022-08-21T05:22:47.318Z,24.08
2022-08-21T05:25:14.476Z,24.50
2022-08-21T05:27:43.413Z,24.74
2022-08-21T05:30:10.894Z,25.19
2022-08-21T05:32:37.680Z,25.54
2022-08-21T05:35:08.482Z,25.82
2022-08-21T05:37:35.911Z,26.29
2022-08-21T05:40:20.034Z,26.43
2022-08-21T05:42:56.011Z,26.52
2022-08-21T05:45:42.672Z,26.50
2022-08-21T05:48:12.044Z,27.44
2022-08-21T05:50:39.144Z,28.44
2022-08-21T05:53:07.638Z,28.86
2022-08-21T05:55:36.362Z,28.75
2022-08-21T05:58:04.099Z,28.71
2022-08-21T06:00:30.871Z,28.64
2022-08-21T06:02:57.770Z,28.47
2022-08-21T06:05:25.202Z,28.05
2022-08-21T06:08:04.072Z,27.62
2022-08-21T06:10:30.840Z,27.36
2022-08-21T06:12:57.591Z,27.25
2022-08-21T06:15:24.398Z,27.09
2022-08-21T06:17:51.055Z,26.82
2022-08-21T06:20:17.963Z,26.69
2022-08-21T06:22:44.540Z,26.47
2022-08-21T06:25:11.474Z,26.39
2022-08-21T06:27:38.909Z,26.42
2022-08-21T06:30:07.679Z,26.26
2022-08-21T06:32:35.498Z,26.33
2022-08-21T06:35:02.104Z,26.82
2022-08-21T06:37:28.695Z,28.57
2022-08-21T06:39:55.435Z,30.37
2022-08-21T06:42:22.374Z,31.84
2022-08-21T06:44:55.720Z,32.73
2022-08-21T06:47:22.847Z,33.87
2022-08-21T06:49:49.563Z,35.12
2022-08-21T06:52:16.627Z,37.13
2022-08-21T06:54:43.740Z,38.25
2022-08-21T06:57:10.395Z,39.04
2022-08-21T06:59:37.091Z,39.11
2022-08-21T07:02:04.275Z,39.70
2022-08-21T07:04:30.991Z,40.39
2022-08-21T07:06:57.526Z,41.23
2022-08-21T07:09:25.022Z,41.86
2022-08-21T07:11:55.839Z,42.75
2022-08-21T07:14:23.205Z,42.90
2022-08-21T07:16:51.698Z,43.46
2022-08-21T07:19:19.058Z,43.96
2022-08-21T07:21:46.058Z,43.82
2022-08-21T07:24:12.991Z,43.80
2022-08-21T07:26:39.902Z,44.22
2022-08-21T07:29:06.499Z,44.16
2022-08-21T07:31:33.147Z,44.59
2022-08-21T07:33:59.870Z,44.84
2022-08-21T07:36:26.575Z,45.43
2022-08-21T07:38:53.429Z,44.78
2022-08-21T07:41:23.722Z,45.44
2022-08-21T07:43:52.735Z,45.41
2022-08-21T07:46:20.387Z,45.82
2022-08-21T07:48:47.010Z,46.10
2022-08-21T07:51:16.158Z,46.14
2022-08-21T07:53:42.892Z,46.18
2022-08-21T07:56:09.931Z,45.37
2022-08-21T07:58:36.551Z,45.32
2022-08-21T08:01:03.281Z,45.67
2022-08-21T08:03:29.927Z,45.70
2022-08-21T08:05:57.783Z,46.34
2022-08-21T08:08:25.449Z,46.56
2022-08-21T08:10:54.255Z,47.10
2022-08-21T08:16:49.504Z,45.00
2022-08-21T08:19:16.060Z,44.61
2022-08-21T08:21:42.969Z,45.19
2022-08-21T08:24:19.227Z,45.10
2022-08-21T08:26:46.832Z,45.68
2022-08-21T08:29:21.210Z,45.43
2022-08-21T08:31:48.032Z,45.55
2022-08-21T08:34:25.515Z,44.66
2022-08-21T08:36:52.780Z,44.47
2022-08-21T08:39:26.853Z,44.46
2022-08-21T08:42:33.616Z,44.71
2022-08-21T08:45:12.987Z,44.05
2022-08-21T08:47:46.050Z,43.78
2022-08-21T08:50:41.204Z,43.69
2022-08-21T08:53:23.133Z,42.71
2022-08-21T08:55:53.067Z,41.88
2022-08-21T08:58:25.746Z,41.62
2022-08-21T09:00:54.862Z,40.39
2022-08-21T09:03:23.260Z,40.19
2022-08-21T09:06:07.654Z,39.64
2022-08-21T09:08:43.995Z,39.32
2022-08-21T09:11:27.809Z,38.86
2022-08-21T09:13:57.079Z,38.74
2022-08-21T09:16:37.530Z,38.21
2022-08-21T09:19:24.797Z,37.93
2022-08-21T09:22:03.950Z,38.05
2022-08-21T09:25:01.989Z,38.20
2022-08-21T09:27:31.068Z,38.29
2022-08-21T09:29:59.190Z,37.99
2022-08-21T09:32:37.829Z,37.92
2022-08-21T09:35:20.669Z,37.96
2022-08-21T09:37:54.923Z,38.07
2022-08-21T09:40:36.499Z,37.36
2022-08-21T09:43:12.010Z,37.76
2022-08-21T09:45:40.676Z,37.42
2022-08-21T09:48:20.496Z,37.56
2022-08-21T09:50:48.577Z,37.39
2022-08-21T09:53:22.492Z,36.84
2022-08-21T09:56:17.259Z,36.88
2022-08-21T09:58:50.308Z,37.00
2022-08-21T10:01:23.836Z,36.87
2022-08-21T10:04:08.482Z,36.91
2022-08-21T10:06:35.968Z,36.90
2022-08-21T10:09:21.797Z,36.73
2022-08-21T10:12:11.115Z,36.93
2022-08-21T10:14:53.283Z,37.34
2022-08-21T10:17:38.727Z,36.68
2022-08-21T10:20:08.683Z,36.11
2022-08-21T10:22:56.440Z,36.42
2022-08-21T10:25:50.314Z,36.51
2022-08-21T10:28:57.867Z,36.10
2022-08-21T10:31:40.512Z,35.52
2022-08-21T10:34:16.908Z,35.18
2022-08-21T10:37:08.336Z,35.74
2022-08-21T10:39:42.594Z,35.85
2022-08-21T10:42:32.482Z,36.52
2022-08-21T10:44:58.996Z,36.94
2022-08-21T10:47:33.731Z,36.98
2022-08-21T10:50:20.808Z,37.08
2022-08-21T10:53:01.635Z,36.87
2022-08-21T10:55:36.880Z,36.96
2022-08-21T10:58:10.488Z,36.74
2022-08-21T11:00:46.086Z,36.97
2022-08-21T11:03:26.762Z,36.40
2022-08-21T11:06:05.035Z,36.36
2022-08-21T11:08:47.762Z,36.84
2022-08-21T11:11:35.868Z,36.77
2022-08-21T11:14:12.231Z,36.72
2022-08-21T11:16:43.590Z,36.95
2022-08-21T11:19:19.626Z,37.03
2022-08-21T11:21:55.404Z,36.66
2022-08-21T11:24:32.818Z,37.00
2022-08-21T11:27:16.033Z,37.50
2022-08-21T11:29:46.345Z,36.99
2022-08-21T11:32:52.466Z,36.41
2022-08-21T11:35:48.255Z,36.92
2022-08-21T11:38:35.702Z,37.11
2022-08-21T11:41:26.054Z,37.71
2022-08-21T11:44:03.692Z,36.87
2022-08-21T11:46:47.910Z,36.66
2022-08-21T11:49:43.025Z,36.52
2022-08-21T11:52:19.730Z,36.37
2022-08-21T11:55:08.821Z,36.17
2022-08-21T11:57:47.715Z,36.07
2022-08-21T12:00:21.611Z,36.41
2022-08-21T12:02:54.671Z,35.91
2022-08-21T12:05:32.545Z,35.43
2022-08-21T12:08:15.553Z,35.78
2022-08-21T12:11:03.118Z,35.62
2022-08-21T12:13:35.691Z,35.58
2022-08-21T12:16:28.656Z,35.24
2022-08-21T12:19:13.234Z,35.85
2022-08-21T12:21:57.974Z,36.49
2022-08-21T12:24:28.061Z,36.91
2022-08-21T12:26:57.821Z,36.31
2022-08-21T12:29:37.034Z,36.79
2022-08-21T12:32:15.782Z,37.21
2022-08-21T12:35:03.195Z,37.58
2022-08-21T12:37:41.093Z,37.93
2022-08-21T12:40:30.896Z,37.68
2022-08-21T12:43:01.964Z,37.82
2022-08-21T12:45:42.726Z,37.22
2022-08-21T12:48:15.323Z,37.79
2022-08-21T12:50:48.738Z,37.09
2022-08-21T12:53:34.547Z,37.62
2022-08-21T12:56:09.907Z,37.27
2022-08-21T12:58:36.843Z,36.68
2022-08-21T13:01:08.731Z,36.95
2022-08-21T13:03:38.258Z,36.94
2022-08-21T13:06:06.493Z,36.66
2022-08-21T13:08:40.779Z,36.67
2022-08-21T13:11:09.196Z,37.32
2022-08-21T13:13:46.791Z,37.47
2022-08-21T13:16:14.351Z,37.31
2022-08-21T13:18:57.992Z,36.91
2022-08-21T13:21:31.135Z,36.73
2022-08-21T13:24:40.705Z,36.91
2022-08-21T13:27:04.512Z,37.05
2022-08-21T13:29:38.582Z,36.63
2022-08-21T13:32:07.843Z,36.67
2022-08-21T13:34:37.714Z,36.80
2022-08-21T13:37:07.939Z,37.15
2022-08-21T13:39:35.605Z,36.88
2022-08-21T13:42:07.086Z,36.30
2022-08-21T13:44:41.609Z,36.38
2022-08-21T13:47:11.700Z,36.42
2022-08-21T13:49:43.211Z,36.05
2022-08-21T13:52:22.893Z,36.47
2022-08-21T13:55:08.626Z,36.53
2022-08-21T13:57:37.871Z,36.97
2022-08-21T14:00:15.405Z,36.75
2022-08-21T14:02:44.512Z,36.40
2022-08-21T14:05:29.794Z,36.39
2022-08-21T14:08:14.503Z,36.28
2022-08-21T14:10:56.063Z,36.37
2022-08-21T14:13:38.192Z,36.65
2022-08-21T14:16:12.302Z,37.01
2022-08-21T14:18:52.531Z,37.24
2022-08-21T14:21:30.963Z,37.36
2022-08-21T14:24:07.456Z,37.50
2022-08-21T14:26:37.398Z,37.03
2022-08-21T14:29:10.700Z,36.22
2022-08-21T14:31:40.339Z,36.35
2022-08-21T14:34:19.779Z,36.07
2022-08-21T14:36:47.796Z,36.40
2022-08-21T14:39:14.451Z,36.20
2022-08-21T14:41:41.170Z,36.01
2022-08-21T14:44:09.831Z,35.84
2022-08-21T14:46:51.610Z,36.13
2022-08-21T14:49:27.203Z,36.65
2022-08-21T14:51:58.076Z,36.85
2022-08-21T14:54:31.914Z,36.76
2022-08-21T14:57:02.055Z,36.01
2022-08-21T14:59:28.960Z,36.08
2022-08-21T15:01:57.093Z,36.46
2022-08-21T15:04:23.752Z,36.35
2022-08-21T15:06:50.376Z,36.30
2022-08-21T15:09:17.162Z,36.57
2022-08-21T15:11:44.345Z,36.54
2022-08-21T15:14:20.942Z,36.58
2022-08-21T15:16:48.922Z,36.20
2022-08-21T15:19:15.652Z,35.61
2022-08-21T15:21:42.465Z,35.74
2022-08-21T15:24:09.295Z,36.03
2022-08-21T15:26:36.912Z,35.62
2022-08-21T15:29:06.950Z,35.68
2022-08-21T15:31:34.422Z,35.49
2022-08-21T15:34:00.958Z,35.21
2022-08-21T15:36:28.380Z,34.89
2022-08-21T15:38:54.971Z,35.18
2022-08-21T15:41:22.021Z,35.71
2022-08-21T15:43:52.641Z,36.30
2022-08-21T15:46:21.313Z,35.68
2022-08-21T15:48:48.627Z,35.87
2022-08-21T15:51:16.784Z,35.77
2022-08-21T15:53:45.351Z,35.60
2022-08-21T15:56:21.065Z,35.87
2022-08-21T15:58:49.460Z,36.13
2022-08-21T16:01:16.394Z,35.68
2022-08-21T16:03:47.734Z,35.22
2022-08-21T16:06:14.275Z,34.98
2022-08-21T16:08:41.030Z,35.42
2022-08-21T16:11:07.734Z,35.51
2022-08-21T16:13:38.583Z,35.69
2022-08-21T16:16:06.439Z,35.88
2022-08-21T16:18:33.166Z,35.91
2022-08-21T16:20:59.799Z,35.66
2022-08-21T16:23:26.339Z,35.52
2022-08-21T16:25:52.915Z,35.36
2022-08-21T16:28:21.698Z,35.13
2022-08-21T16:30:51.011Z,34.85
2022-08-21T16:33:25.392Z,35.03
2022-08-21T16:35:52.340Z,34.91
2022-08-21T16:38:19.371Z,34.75
2022-08-21T16:40:46.056Z,34.95
2022-08-21T16:43:12.721Z,34.69
2022-08-21T16:45:43.910Z,34.66
2022-08-21T16:48:11.015Z,33.88
2022-08-21T16:50:37.983Z,34.16
2022-08-21T16:53:07.015Z,33.82
2022-08-21T16:55:38.378Z,34.09
2022-08-21T16:58:10.586Z,34.37
2022-08-21T17:00:37.276Z,34.50
2022-08-21T17:03:04.301Z,34.37
2022-08-21T17:05:30.854Z,34.47
2022-08-21T17:07:57.440Z,34.44
2022-08-21T17:10:24.022Z,34.17
2022-08-21T17:12:57.243Z,34.34
2022-08-21T17:15:29.582Z,34.32
2022-08-21T17:17:56.612Z,34.17
2022-08-21T17:20:24.410Z,34.23
2022-08-21T17:22:51.044Z,34.09
2022-08-21T17:25:17.688Z,34.05
2022-08-21T17:27:47.389Z,33.87
2022-08-21T17:30:15.549Z,33.97
2022-08-21T17:32:44.676Z,33.86
2022-08-21T17:35:12.948Z,33.98
2022-08-21T17:37:40.480Z,33.73
2022-08-21T17:40:10.632Z,33.65
2022-08-21T17:42:37.240Z,33.43
2022-08-21T17:45:04.818Z,33.28
2022-08-21T17:47:32.727Z,33.22
2022-08-21T17:49:59.360Z,33.12
2022-08-21T17:52:27.282Z,32.91
2022-08-21T17:54:53.846Z,32.93
2022-08-21T17:57:23.037Z,32.75
2022-08-21T17:59:51.607Z,32.57
2022-08-21T18:02:21.711Z,32.39
2022-08-21T18:04:54.984Z,32.12
2022-08-21T18:07:32.273Z,32.09
2022-08-21T18:10:05.493Z,31.99
2022-08-21T18:12:33.368Z,31.81
2022-08-21T18:15:01.024Z,31.65
2022-08-21T18:17:29.590Z,31.39
2022-08-21T18:19:56.424Z,31.16
2022-08-21T18:22:23.001Z,30.86
2022-08-21T18:24:49.841Z,30.72
2022-08-21T18:27:17.596Z,30.54
2022-08-21T18:29:47.745Z,30.40
2022-08-21T18:32:31.097Z,30.35
2022-08-21T18:35:02.935Z,30.23
2022-08-21T18:37:30.076Z,30.08
2022-08-21T18:39:56.907Z,29.79
2022-08-21T18:42:29.087Z,29.77
2022-08-21T18:45:00.941Z,29.41
2022-08-21T18:47:36.962Z,29.42
2022-08-21T18:50:05.845Z,29.08
2022-08-21T18:52:38.238Z,28.96
2022-08-21T18:55:09.304Z,29.03
2022-08-21T18:57:41.464Z,28.78
2022-08-21T19:00:12.194Z,28.78
2022-08-21T19:02:40.478Z,28.56
2022-08-21T19:05:13.503Z,28.35
2022-08-21T19:07:40.373Z,28.11
2022-08-21T19:13:01.069Z,27.93
2022-08-21T19:18:17.551Z,27.76
2022-08-21T19:20:47.393Z,27.79
2022-08-21T19:23:16.314Z,27.66
2022-08-21T19:25:51.857Z,27.46
2022-08-21T19:28:25.896Z,27.54
2022-08-21T19:33:50.670Z,26.53
2022-08-21T19:36:17.898Z,26.39
2022-08-21T19:38:45.622Z,26.00
2022-08-21T19:41:15.795Z,25.73
2022-08-21T19:43:47.354Z,25.76
2022-08-21T19:46:29.803Z,25.69
2022-08-21T19:48:57.591Z,25.49
2022-08-21T19:51:24.586Z,25.48
2022-08-21T19:56:40.023Z,25.34
2022-08-21T19:59:09.476Z,25.00
2022-08-21T20:01:36.146Z,25.02
2022-08-21T20:04:08.942Z,24.94
2022-08-21T20:06:45.198Z,25.12
2022-08-21T20:09:13.487Z,24.99
2022-08-21T20:11:44.227Z,24.90
2022-08-21T20:14:13.660Z,24.64
2022-08-21T20:16:41.525Z,24.31
2022-08-21T20:19:08.642Z,24.39
2022-08-21T20:21:43.740Z,24.74
2022-08-21T20:24:14.724Z,24.96
2022-08-21T20:26:48.690Z,24.82
2022-08-21T20:29:24.450Z,24.77
2022-08-21T20:31:59.934Z,24.77
2022-08-21T20:34:26.520Z,24.81
2022-08-21T20:36:53.425Z,24.83
2022-08-21T20:39:20.322Z,25.07
2022-08-21T20:41:52.978Z,25.08
2022-08-21T20:44:19.708Z,25.16
2022-08-21T20:46:46.628Z,24.96
2022-08-21T20:49:19.498Z,24.94
2022-08-21T20:51:51.467Z,24.86
2022-08-21T20:54:41.545Z,24.92
2022-08-21T20:57:52.510Z,24.97
2022-08-21T21:00:21.598Z,25.19
2022-08-21T21:03:19.116Z,25.08
2022-08-21T21:06:04.831Z,25.12
2022-08-21T21:08:36.854Z,25.19
2022-08-21T21:11:16.476Z,25.26
2022-08-21T21:13:51.288Z,25.21
2022-08-21T21:16:24.523Z,25.39
2022-08-21T21:19:01.610Z,25.35
2022-08-21T21:21:39.107Z,25.21
2022-08-21T21:24:19.476Z,25.09
2022-08-21T21:26:54.047Z,24.74
2022-08-21T21:29:30.040Z,24.41
2022-08-21T21:31:56.992Z,24.55
2022-08-21T21:34:26.715Z,24.63
2022-08-21T21:37:04.863Z,24.50
2022-08-21T21:39:53.742Z,24.44
2022-08-21T21:42:43.863Z,24.63
2022-08-21T21:45:17.955Z,24.33
2022-08-21T21:48:03.476Z,24.46
2022-08-21T21:50:48.362Z,24.74
2022-08-21T21:53:35.690Z,24.79
2022-08-21T21:56:27.447Z,24.80
2022-08-21T21:59:08.322Z,24.54
2022-08-21T22:01:48.803Z,24.66
2022-08-21T22:04:30.686Z,24.46
2022-08-21T22:07:00.090Z,24.15
2022-08-21T22:09:45.671Z,23.95
2022-08-21T22:12:49.760Z,23.88
2022-08-21T22:15:26.516Z,23.87
2022-08-21T22:18:06.072Z,23.96
2022-08-21T22:20:40.444Z,24.23
2022-08-21T22:23:12.673Z,23.99
2022-08-21T22:25:47.248Z,24.17
2022-08-21T22:28:22.323Z,24.21
2022-08-21T22:30:56.403Z,24.21
2022-08-21T22:33:26.350Z,24.26
2022-08-21T22:35:57.742Z,23.94
2022-08-21T22:38:28.220Z,23.79
2022-08-21T22:41:12.791Z,23.96
2022-08-21T22:43:55.439Z,23.92
2022-08-21T22:46:30.786Z,23.87
2022-08-21T22:49:03.475Z,24.14
2022-08-21T22:51:40.093Z,24.33
2022-08-21T22:54:21.673Z,24.26
2022-08-21T22:57:00.113Z,24.39
2022-08-21T22:59:53.796Z,24.19
2022-08-21T23:02:37.922Z,24.11
2022-08-21T23:05:30.654Z,24.22
2022-08-21T23:08:24.191Z,24.07
2022-08-21T23:10:58.077Z,24.06
2022-08-21T23:13:24.855Z,24.13
2022-08-21T23:16:29.539Z,24.13
2022-08-21T23:19:34.399Z,24.17
2022-08-21T23:22:42.231Z,24.12
2022-08-21T23:25:27.646Z,24.11
2022-08-21T23:28:07.030Z,24.16
2022-08-21T23:31:06.681Z,24.01
2022-08-21T23:34:01.048Z,23.98
2022-08-21T23:37:25.270Z,23.80
2022-08-21T23:40:22.099Z,23.73
2022-08-21T23:43:21.603Z,23.73
2022-08-21T23:46:33.450Z,23.56
2022-08-21T23:52:15.659Z,22.92
2022-08-21T23:55:03.246Z,23.18
2022-08-21T23:57:48.688Z,23.10
